Time;durP1;ratioP1;P1;durP2;ratioP2;P2;SDS_P1;SDS_P2;PMS_P1;PMS_P2;Temp;Humidity;BMP_temperature;BMP_pressure;BME280_temperature;BME280_humidity;BME280_pressure;Samples;Min_cycle;Max_cycle;Signal;HPM_P1;HPM_P2
2023/10/05 00:03:47;;;;;;;7.82;1.67;;;15.70;99.30;;;;;;5034834;28;20029;-81
2023/10/05 00:06:25;;;;;;;7.82;1.83;;;15.70;99.20;;;;;;5035431;28;20148;-80
2023/10/05 00:08:53;;;;;;;14.25;2.53;;;15.70;99.30;;;;;;5034660;28;20040;-81
2023/10/05 00:11:23;;;;;;;8.45;1.67;;;15.70;99.50;;;;;;5035038;28;20037;-82
2023/10/05 00:13:53;;;;;;;8.27;1.92;;;15.70;99.20;;;;;;5034627;28;20029;-82
2023/10/05 00:16:23;;;;;;;5.20;1.80;;;15.70;99.40;;;;;;5033405;28;20033;-82
2023/10/05 00:18:50;;;;;;;10.18;1.90;;;15.70;99.40;;;;;;5034484;28;20036;-81
2023/10/05 00:21:19;;;;;;;8.98;1.73;;;15.80;99.40;;;;;;5034378;28;20409;-82
2023/10/05 00:23:58;;;;;;;6.93;1.80;;;15.80;99.50;;;;;;5034445;28;20109;-82
2023/10/05 00:26:28;;;;;;;13.57;1.90;;;15.80;99.40;;;;;;5034670;28;20036;-82
2023/10/05 00:29:04;;;;;;;8.80;1.60;;;15.80;99.50;;;;;;5034344;28;20091;-83
2023/10/05 00:31:30;;;;;;;8.98;1.73;;;15.80;99.50;;;;;;5035989;28;20124;-83
2023/10/05 00:33:56;;;;;;;8.35;1.70;;;15.80;99.50;;;;;;5033182;28;20492;-80
2023/10/05 00:36:27;;;;;;;11.15;1.55;;;15.80;99.60;;;;;;5034580;28;20462;-82
2023/10/05 00:38:52;;;;;;;12.88;1.90;;;15.80;99.50;;;;;;5033675;28;20045;-82
2023/10/05 00:41:18;;;;;;;10.48;2.30;;;15.70;99.60;;;;;;5033127;28;20524;-82
2023/10/05 00:43:46;;;;;;;9.27;1.55;;;15.80;99.80;;;;;;5033099;28;20030;-82
2023/10/05 00:46:13;;;;;;;9.75;1.88;;;15.70;99.90;;;;;;5033994;28;20033;-81
2023/10/05 00:49:00;;;;;;;8.23;1.50;;;15.70;99.90;;;;;;5034021;28;20538;-82
2023/10/05 00:51:30;;;;;;;9.63;2.10;;;15.70;99.90;;;;;;5034564;28;20041;-82
2023/10/05 00:53:58;;;;;;;7.10;1.92;;;15.80;99.90;;;;;;5034521;28;20038;-82
2023/10/05 00:56:24;;;;;;;4.55;1.25;;;15.80;99.90;;;;;;5032632;28;20029;-83
2023/10/05 00:59:05;;;;;;;12.30;1.60;;;15.80;99.90;;;;;;5032700;28;20044;-83
2023/10/05 01:01:50;;;;;;;8.98;2.30;;;15.90;99.90;;;;;;5033546;28;20034;-81
2023/10/05 01:04:23;;;;;;;8.20;1.63;;;15.80;99.90;;;;;;5033549;28;20033;-83
2023/10/05 01:06:57;;;;;;;10.10;1.80;;;15.80;99.90;;;;;;5033344;28;20037;-82
2023/10/05 01:12:11;;;;;;;9.82;2.35;;;15.80;99.90;;;;;;5032617;28;20033;-81
2023/10/05 01:14:50;;;;;;;8.63;1.70;;;15.80;99.90;;;;;;5034643;28;20037;-81
2023/10/05 01:17:27;;;;;;;10.77;2.05;;;15.80;99.90;;;;;;5033590;28;20046;-80
2023/10/05 01:20:06;;;;;;;8.98;2.00;;;15.80;99.90;;;;;;5033984;28;20021;-80
2023/10/05 01:22:33;;;;;;;10.68;2.10;;;15.80;99.90;;;;;;5033661;28;20029;-80
2023/10/05 01:25:01;;;;;;;8.60;1.67;;;15.80;99.90;;;;;;5032398;28;20036;-80
2023/10/05 01:27:29;;;;;;;10.70;1.77;;;15.80;99.90;;;;;;5033951;28;20037;-80
2023/10/05 01:29:56;;;;;;;9.40;1.83;;;15.80;99.90;;;;;;5033778;28;20053;-81
2023/10/05 01:32:22;;;;;;;10.38;1.65;;;15.80;99.90;;;;;;5033283;28;20418;-81
2023/10/05 01:34:50;;;;;;;12.68;1.88;;;15.80;99.90;;;;;;5036701;28;20044;-83
2023/10/05 01:37:23;;;;;;;8.98;1.50;;;15.80;99.90;;;;;;5036082;28;20045;-83
2023/10/05 01:39:52;;;;;;;12.93;1.60;;;15.70;99.90;;;;;;5034891;28;20030;-84
2023/10/05 01:42:18;;;;;;;8.18;1.70;;;15.70;99.90;;;;;;5037491;28;20029;-82
2023/10/05 01:44:47;;;;;;;11.00;2.40;;;15.70;99.90;;;;;;5039646;28;20034;-83
2023/10/05 01:47:17;;;;;;;6.30;1.60;;;15.70;99.90;;;;;;5034288;28;20425;-82
2023/10/05 01:49:46;;;;;;;9.35;2.17;;;15.70;99.90;;;;;;5033455;28;20429;-82
2023/10/05 01:52:12;;;;;;;8.55;1.90;;;15.70;99.90;;;;;;5033334;28;20455;-82
2023/10/05 01:54:43;;;;;;;8.10;1.88;;;15.70;99.90;;;;;;5033854;28;20037;-82
2023/10/05 01:57:09;;;;;;;7.57;1.85;;;15.60;99.90;;;;;;5033757;28;20030;-82
2023/10/05 01:59:37;;;;;;;9.25;2.10;;;15.60;99.90;;;;;;5036830;28;20061;-82
2023/10/05 02:02:10;;;;;;;9.70;1.65;;;15.60;99.90;;;;;;5035488;28;20116;-82
2023/10/05 02:04:49;;;;;;;7.93;2.10;;;15.50;99.90;;;;;;5033563;28;20026;-82
2023/10/05 02:07:15;;;;;;;7.55;2.17;;;15.50;99.90;;;;;;5035212;28;20034;-82
2023/10/05 02:09:41;;;;;;;7.10;1.70;;;15.50;99.90;;;;;;5036875;28;20098;-82
2023/10/05 02:12:07;;;;;;;8.43;2.42;;;15.50;99.90;;;;;;5037163;28;20037;-81
2023/10/05 02:14:34;;;;;;;10.63;2.00;;;15.50;99.90;;;;;;5037116;28;20061;-81
2023/10/05 02:17:00;;;;;;;8.27;1.90;;;15.40;99.90;;;;;;5036702;28;20030;-81
2023/10/05 02:19:26;;;;;;;9.07;1.90;;;15.40;99.90;;;;;;5036918;28;20064;-82
2023/10/05 02:21:54;;;;;;;10.18;2.00;;;15.40;99.90;;;;;;5036825;28;20026;-81
2023/10/05 02:24:25;;;;;;;11.32;2.17;;;15.40;99.90;;;;;;5037238;28;20030;-80
2023/10/05 02:29:31;;;;;;;9.05;1.98;;;15.30;99.90;;;;;;5036368;28;20068;-80
2023/10/05 02:34:24;;;;;;;9.05;1.90;;;15.30;99.90;;;;;;5035504;28;20045;-81
2023/10/05 02:36:50;;;;;;;8.75;2.20;;;15.30;99.90;;;;;;5036435;28;20378;-80
2023/10/05 02:39:16;;;;;;;11.75;2.53;;;15.30;99.90;;;;;;5036289;28;20045;-80
2023/10/05 02:41:43;;;;;;;8.75;2.25;;;15.30;99.90;;;;;;5036303;28;20040;-81
2023/10/05 02:44:23;;;;;;;13.73;2.85;;;15.20;99.90;;;;;;5036866;28;20056;-81
2023/10/05 02:46:49;;;;;;;9.65;2.55;;;15.20;99.90;;;;;;5035189;28;20084;-81
2023/10/05 02:49:15;;;;;;;9.77;1.90;;;15.20;99.90;;;;;;5035896;28;20037;-80
2023/10/05 02:51:43;;;;;;;11.63;2.33;;;15.20;99.90;;;;;;5036239;28;20079;-81
2023/10/05 02:54:10;;;;;;;7.85;1.60;;;15.20;99.90;;;;;;5036140;28;20057;-80
2023/10/05 02:56:40;;;;;;;9.07;2.20;;;15.20;99.90;;;;;;5034971;28;20474;-81
2023/10/05 02:59:14;;;;;;;9.82;2.28;;;15.30;99.90;;;;;;5034600;28;20486;-80
2023/10/05 03:01:40;;;;;;;10.65;2.40;;;15.30;99.90;;;;;;5035973;28;20030;-80
2023/10/05 03:04:10;;;;;;;8.48;2.20;;;15.30;99.90;;;;;;5036153;28;20036;-80
2023/10/05 03:06:39;;;;;;;8.40;2.17;;;15.30;99.90;;;;;;5035510;28;20029;-79
2023/10/05 03:09:08;;;;;;;7.00;2.30;;;15.30;99.90;;;;;;5035774;28;20037;-81
2023/10/05 03:11:41;;;;;;;8.93;2.05;;;15.30;99.90;;;;;;5034711;28;20029;-80
2023/10/05 03:14:11;;;;;;;9.70;2.85;;;15.30;99.90;;;;;;5036056;28;20100;-80
2023/10/05 03:16:43;;;;;;;11.02;2.38;;;15.30;99.90;;;;;;5036084;28;20033;-80
2023/10/05 03:19:33;;;;;;;5.65;1.83;;;15.30;99.90;;;;;;5035569;28;20108;-81
2023/10/05 03:22:04;;;;;;;11.18;2.38;;;15.30;99.90;;;;;;5035141;28;20041;-79
2023/10/05 03:24:30;;;;;;;9.48;2.83;;;15.30;99.90;;;;;;5035878;28;20021;-80
2023/10/05 03:26:56;;;;;;;9.20;2.63;;;15.30;99.90;;;;;;5035413;28;20036;-81
2023/10/05 03:29:22;;;;;;;10.82;2.65;;;15.30;99.90;;;;;;5035379;28;20057;-80
2023/10/05 03:32:04;;;;;;;6.15;2.08;;;15.30;99.90;;;;;;5035317;28;20037;-79
2023/10/05 03:34:32;;;;;;;8.50;2.38;;;15.30;99.90;;;;;;5034676;28;20149;-80
2023/10/05 03:37:08;;;;;;;9.98;2.72;;;15.30;99.90;;;;;;5035511;28;20374;-80
2023/10/05 03:39:53;;;;;;;8.98;2.60;;;15.30;99.90;;;;;;5035941;28;20135;-80
2023/10/05 03:42:22;;;;;;;9.23;2.20;;;15.30;99.90;;;;;;5034584;28;20033;-81
2023/10/05 03:45:00;;;;;;;9.68;2.47;;;15.30;99.90;;;;;;5034920;28;20048;-82
2023/10/05 03:47:26;;;;;;;9.95;2.83;;;15.30;99.90;;;;;;5035346;28;20038;-81
2023/10/05 03:49:54;;;;;;;10.95;2.90;;;15.40;99.90;;;;;;5035287;28;20052;-82
2023/10/05 03:52:20;;;;;;;11.93;2.72;;;15.30;99.90;;;;;;5035501;28;20091;-81
2023/10/05 03:54:46;;;;;;;10.15;3.10;;;15.30;99.90;;;;;;5034728;28;20037;-82
2023/10/05 03:57:11;;;;;;;12.60;3.05;;;15.30;99.90;;;;;;5034990;28;20037;-81
2023/10/05 03:59:37;;;;;;;15.43;3.17;;;15.30;99.90;;;;;;5034676;28;20053;-81
2023/10/05 04:02:07;;;;;;;9.73;2.90;;;15.30;99.90;;;;;;5035382;28;20041;-81
2023/10/05 04:04:37;;;;;;;9.57;3.03;;;15.20;99.90;;;;;;5034776;28;20025;-82
2023/10/05 04:07:03;;;;;;;15.98;3.67;;;15.20;99.90;;;;;;5034940;28;20033;-82
2023/10/05 04:09:35;;;;;;;9.07;2.72;;;15.20;99.90;;;;;;5034013;28;20033;-82
2023/10/05 04:12:04;;;;;;;8.07;2.65;;;15.30;99.90;;;;;;5035011;28;20030;-82
2023/10/05 04:14:29;;;;;;;13.63;3.00;;;15.30;99.90;;;;;;5034375;28;20527;-82
2023/10/05 04:16:57;;;;;;;9.70;3.00;;;15.30;99.90;;;;;;5033464;28;20128;-82
2023/10/05 04:19:24;;;;;;;11.40;2.92;;;15.30;99.90;;;;;;5034786;28;20418;-81
2023/10/05 04:21:52;;;;;;;9.30;3.00;;;15.30;99.90;;;;;;5034517;28;20029;-81
2023/10/05 04:24:18;;;;;;;6.78;2.22;;;15.40;99.90;;;;;;5033111;28;20043;-80
2023/10/05 04:26:45;;;;;;;14.02;3.10;;;15.30;99.90;;;;;;5034447;28;20033;-79
2023/10/05 04:29:20;;;;;;;13.55;3.72;;;15.40;99.90;;;;;;5033412;28;20053;-80
2023/10/05 04:31:48;;;;;;;8.85;2.22;;;15.30;99.90;;;;;;5034054;28;20076;-81
2023/10/05 04:34:18;;;;;;;7.28;2.55;;;15.30;99.90;;;;;;5032856;28;20029;-80
2023/10/05 04:36:50;;;;;;;10.05;3.35;;;15.30;99.90;;;;;;5034593;28;20124;-81
2023/10/05 04:39:28;;;;;;;13.18;3.53;;;15.30;99.90;;;;;;5034471;28;20030;-80
2023/10/05 04:41:55;;;;;;;9.55;3.30;;;15.20;99.90;;;;;;5033143;28;20041;-81
2023/10/05 04:44:20;;;;;;;10.45;3.28;;;15.20;99.90;;;;;;5034208;28;20033;-81
2023/10/05 04:46:49;;;;;;;12.68;3.92;;;15.20;99.90;;;;;;5033949;28;20422;-80
2023/10/05 04:49:23;;;;;;;6.95;2.35;;;15.20;99.90;;;;;;5033899;28;20099;-82
2023/10/05 04:51:51;;;;;;;8.38;1.80;;;15.20;99.90;;;;;;5034649;28;20076;-83
2023/10/05 04:54:18;;;;;;;6.43;2.10;;;15.20;99.90;;;;;;5032749;28;20087;-83
2023/10/05 04:56:54;;;;;;;9.93;2.50;;;15.30;99.90;;;;;;5033695;28;20033;-76
2023/10/05 04:59:25;;;;;;;10.48;2.70;;;15.30;99.90;;;;;;5033787;28;20040;-76
2023/10/05 05:06:59;;;;;;;9.27;3.10;;;15.40;99.90;;;;;;5032401;28;20032;-75
2023/10/05 05:09:35;;;;;;;9.50;3.63;;;15.30;99.90;;;;;;5033563;28;20037;-75
2023/10/05 05:12:05;;;;;;;7.70;2.70;;;15.40;99.90;;;;;;5033812;28;20076;-75
2023/10/05 05:14:35;;;;;;;9.38;2.88;;;15.30;99.90;;;;;;5032303;28;20025;-75
2023/10/05 05:17:05;;;;;;;9.15;3.08;;;15.40;99.90;;;;;;5032165;28;20032;-77
2023/10/05 05:19:36;;;;;;;10.95;3.38;;;15.30;99.90;;;;;;5032234;28;20112;-74
2023/10/05 05:22:05;;;;;;;7.88;3.28;;;15.30;99.90;;;;;;5033495;28;20490;-77
2023/10/05 05:24:31;;;;;;;12.40;3.10;;;15.30;99.90;;;;;;5034048;28;20025;-79
2023/10/05 05:27:03;;;;;;;9.30;3.33;;;15.30;99.90;;;;;;5033037;28;20033;-77
2023/10/05 05:29:33;;;;;;;10.20;2.92;;;15.30;99.90;;;;;;5033630;28;20040;-76
2023/10/05 05:32:22;;;;;;;11.65;3.03;;;15.30;99.90;;;;;;5033562;28;20140;-77
2023/10/05 05:34:50;;;;;;;12.88;3.03;;;15.30;99.90;;;;;;5033025;28;20080;-77
2023/10/05 05:39:47;;;;;;;9.53;3.07;;;15.30;99.90;;;;;;5033305;28;20044;-77
2023/10/05 05:42:14;;;;;;;9.00;2.97;;;15.30;99.90;;;;;;5035461;28;20462;-79
2023/10/05 05:44:43;;;;;;;12.52;3.60;;;15.30;99.90;;;;;;5036062;28;20037;-78
2023/10/05 05:47:14;;;;;;;10.40;3.33;;;15.30;99.90;;;;;;5036910;28;20036;-76
2023/10/05 05:49:40;;;;;;;13.10;3.22;;;15.30;99.90;;;;;;5037503;28;20486;-79
2023/10/05 05:52:08;;;;;;;15.88;3.35;;;15.20;99.90;;;;;;5037020;28;20033;-79
2023/10/05 05:54:38;;;;;;;11.35;3.85;;;15.20;99.90;;;;;;5036199;28;20366;-76
2023/10/05 05:57:07;;;;;;;12.00;3.13;;;15.20;99.90;;;;;;5035929;28;20374;-76
2023/10/05 05:59:34;;;;;;;10.73;3.28;;;15.10;99.90;;;;;;5037220;28;20159;-76
2023/10/05 06:02:10;;;;;;;12.85;4.43;;;15.10;99.90;;;;;;5036764;28;20528;-76
2023/10/05 06:04:37;;;;;;;12.02;3.30;;;15.10;99.90;;;;;;5036559;28;20111;-76
2023/10/05 06:07:11;;;;;;;11.95;3.65;;;15.10;99.90;;;;;;5036748;28;20378;-76
2023/10/05 06:09:37;;;;;;;8.20;2.58;;;15.10;99.90;;;;;;5037014;28;20120;-76
2023/10/05 06:12:05;;;;;;;10.05;3.33;;;15.10;99.90;;;;;;5036744;28;20041;-76
2023/10/05 06:14:34;;;;;;;9.68;3.13;;;15.20;99.90;;;;;;5036665;28;20026;-76
2023/10/05 06:17:00;;;;;;;10.60;3.00;;;15.20;99.90;;;;;;5036863;28;20041;-75
2023/10/05 06:19:27;;;;;;;12.15;3.42;;;15.20;99.90;;;;;;5036286;28;20042;-75
2023/10/05 06:21:53;;;;;;;9.02;3.38;;;15.30;99.90;;;;;;5036582;28;20026;-80
2023/10/05 06:24:18;;;;;;;13.20;3.30;;;15.30;99.90;;;;;;5035286;28;20420;-79
2023/10/05 06:26:45;;;;;;;11.82;4.13;;;15.20;99.90;;;;;;5035673;28;20041;-80
2023/10/05 06:29:12;;;;;;;14.50;3.78;;;15.20;99.90;;;;;;5036326;28;20034;-80
2023/10/05 06:31:40;;;;;;;12.55;3.78;;;15.20;99.90;;;;;;5034990;28;20053;-78
2023/10/05 06:34:09;;;;;;;9.60;3.17;;;15.20;99.90;;;;;;5036483;28;20079;-76
2023/10/05 06:36:44;;;;;;;13.13;3.15;;;15.10;99.90;;;;;;5035055;28;20477;-78
2023/10/05 06:39:12;;;;;;;10.52;3.30;;;15.10;99.90;;;;;;5036305;28;20033;-79
2023/10/05 06:41:38;;;;;;;7.38;3.05;;;15.10;99.90;;;;;;5035483;28;20120;-77
2023/10/05 06:44:07;;;;;;;11.32;3.25;;;15.10;99.90;;;;;;5036136;28;20374;-77
2023/10/05 06:46:34;;;;;;;13.23;3.55;;;15.00;99.90;;;;;;5034817;28;20033;-77
2023/10/05 06:49:01;;;;;;;12.70;3.63;;;15.00;99.90;;;;;;5035846;28;20164;-77
2023/10/05 06:51:27;;;;;;;14.60;4.03;;;15.00;99.90;;;;;;5036453;28;20040;-79
2023/10/05 06:53:59;;;;;;;11.63;3.67;;;15.00;99.90;;;;;;5035305;28;20034;-79
2023/10/05 06:56:26;;;;;;;10.98;3.35;;;15.00;99.90;;;;;;5036060;28;20500;-75
2023/10/05 06:58:52;;;;;;;15.10;3.60;;;15.00;99.90;;;;;;5035490;28;20525;-77
2023/10/05 07:01:20;;;;;;;13.25;4.10;;;15.10;99.90;;;;;;5035272;28;20489;-75
2023/10/05 07:03:56;;;;;;;17.08;4.25;;;15.00;99.90;;;;;;5035737;28;20394;-77
2023/10/05 07:06:29;;;;;;;9.20;3.25;;;15.10;99.90;;;;;;5035748;28;20026;-75
2023/10/05 07:08:55;;;;;;;11.15;3.97;;;15.10;99.90;;;;;;5034337;28;20030;-79
2023/10/05 07:11:22;;;;;;;12.68;3.65;;;15.10;99.90;;;;;;5035593;28;20026;-81
2023/10/05 07:13:48;;;;;;;13.73;3.83;;;15.20;99.90;;;;;;5035912;28;20088;-81
2023/10/05 07:16:15;;;;;;;14.20;3.72;;;15.10;99.90;;;;;;5034026;28;20104;-79
2023/10/05 07:18:40;;;;;;;11.63;3.78;;;15.10;99.90;;;;;;5035518;28;20032;-75
2023/10/05 07:21:08;;;;;;;12.60;3.97;;;15.10;99.90;;;;;;5035319;28;20030;-75
2023/10/05 07:23:37;;;;;;;13.77;4.32;;;15.10;99.90;;;;;;5035460;28;20030;-75
2023/10/05 07:26:07;;;;;;;12.73;4.53;;;15.10;99.90;;;;;;5035390;28;20072;-76
2023/10/05 07:28:36;;;;;;;12.38;3.60;;;15.10;99.90;;;;;;5033682;28;20037;-75
2023/10/05 07:31:03;;;;;;;11.05;3.60;;;15.10;99.90;;;;;;5035558;28;20081;-77
2023/10/05 07:33:35;;;;;;;15.25;3.78;;;15.10;99.90;;;;;;5036040;28;20064;-75
2023/10/05 07:36:02;;;;;;;9.82;3.85;;;15.10;99.90;;;;;;5035678;28;20040;-75
2023/10/05 07:38:28;;;;;;;13.77;3.72;;;15.20;99.90;;;;;;5035394;28;20037;-76
2023/10/05 07:40:57;;;;;;;10.27;3.53;;;15.20;99.90;;;;;;5034641;28;20029;-76
2023/10/05 07:43:23;;;;;;;13.27;3.38;;;15.20;99.90;;;;;;5034903;28;20021;-76
2023/10/05 07:45:49;;;;;;;11.15;3.40;;;15.20;99.90;;;;;;5033545;28;20034;-75
2023/10/05 07:48:16;;;;;;;12.65;3.72;;;15.20;99.90;;;;;;5034961;28;20034;-75
2023/10/05 07:50:41;;;;;;;12.75;3.85;;;15.30;99.90;;;;;;5034645;28;20037;-75
2023/10/05 07:53:07;;;;;;;12.50;3.95;;;15.30;99.90;;;;;;5035044;28;20036;-75
2023/10/05 07:55:35;;;;;;;11.10;3.38;;;15.40;99.90;;;;;;5033939;28;20037;-80
2023/10/05 07:58:02;;;;;;;15.02;3.40;;;15.40;99.90;;;;;;5033614;28;20537;-81
2023/10/05 08:00:28;;;;;;;10.63;3.70;;;15.40;99.90;;;;;;5034694;28;20029;-81
2023/10/05 08:02:54;;;;;;;15.45;4.07;;;15.40;99.90;;;;;;5033492;28;20025;-79
2023/10/05 08:05:20;;;;;;;8.43;3.47;;;15.50;99.90;;;;;;5033387;28;20394;-80
2023/10/05 08:07:46;;;;;;;12.40;3.70;;;15.50;99.90;;;;;;5034612;28;20049;-81
2023/10/05 08:10:19;;;;;;;10.93;3.40;;;15.50;99.90;;;;;;5034815;28;20028;-81
2023/10/05 08:12:45;;;;;;;10.68;4.03;;;15.60;99.90;;;;;;5034948;28;20041;-81
2023/10/05 08:15:18;;;;;;;12.65;3.70;;;15.60;99.90;;;;;;5034822;28;20026;-80
2023/10/05 08:17:44;;;;;;;15.27;3.83;;;15.60;99.90;;;;;;5034430;28;20065;-78
2023/10/05 08:20:11;;;;;;;8.02;2.85;;;15.70;99.90;;;;;;5032991;28;20057;-79
2023/10/05 08:22:37;;;;;;;8.82;3.42;;;15.70;99.90;;;;;;5033506;28;20041;-80
2023/10/05 08:25:12;;;;;;;11.93;3.50;;;15.80;99.90;;;;;;5034292;28;20026;-78
2023/10/05 08:27:39;;;;;;;9.88;3.28;;;15.90;99.90;;;;;;5034016;28;20040;-80
2023/10/05 08:30:07;;;;;;;11.77;3.08;;;15.90;99.90;;;;;;5034587;28;20116;-77
2023/10/05 08:32:33;;;;;;;13.52;3.50;;;15.90;99.90;;;;;;5034395;28;20135;-77
2023/10/05 08:35:07;;;;;;;8.95;2.75;;;15.90;99.90;;;;;;5033248;28;20030;-79
2023/10/05 08:37:34;;;;;;;14.20;3.05;;;16.00;99.90;;;;;;5034280;28;20037;-79
2023/10/05 08:39:59;;;;;;;12.07;3.22;;;16.10;99.90;;;;;;5034062;28;20037;-78
2023/10/05 08:42:27;;;;;;;9.38;3.28;;;16.20;99.90;;;;;;5034541;28;20033;-77
2023/10/05 08:44:53;;;;;;;10.50;3.10;;;16.20;99.90;;;;;;5033601;28;20101;-78
2023/10/05 08:47:21;;;;;;;9.48;2.85;;;16.30;99.90;;;;;;5033987;28;20044;-77
2023/10/05 08:49:49;;;;;;;9.15;2.90;;;16.30;99.90;;;;;;5034506;28;20109;-77
2023/10/05 08:52:19;;;;;;;10.77;2.90;;;16.30;99.90;;;;;;5033798;28;20044;-82
2023/10/05 08:54:46;;;;;;;11.10;2.75;;;16.30;99.90;;;;;;5034119;28;20105;-80
2023/10/05 08:57:13;;;;;;;10.63;3.22;;;16.30;99.90;;;;;;5033860;28;20033;-81
2023/10/05 08:59:44;;;;;;;15.00;3.58;;;16.40;99.90;;;;;;5033729;28;20033;-81
2023/10/05 09:02:11;;;;;;;12.88;2.95;;;16.40;99.90;;;;;;5034001;28;20033;-80
2023/10/05 09:04:43;;;;;;;9.48;2.83;;;16.50;99.90;;;;;;5034325;28;20037;-81
2023/10/05 09:07:34;;;;;;;9.48;3.42;;;16.60;99.90;;;;;;5033621;28;20035;-81
2023/10/05 09:10:00;;;;;;;11.55;2.60;;;16.70;99.90;;;;;;5033759;28;20099;-81
2023/10/05 09:15:12;;;;;;;8.68;2.97;;;16.80;99.80;;;;;;5033723;28;20033;-78
2023/10/05 09:20:32;;;;;;;10.95;3.22;;;16.80;99.90;;;;;;5033841;28;20029;-77
2023/10/05 09:23:07;;;;;;;8.07;2.80;;;16.80;99.70;;;;;;5033621;28;20429;-81
2023/10/05 09:25:37;;;;;;;11.25;2.80;;;16.80;99.70;;;;;;5033792;28;20075;-78
2023/10/05 09:28:13;;;;;;;8.40;2.50;;;16.80;99.70;;;;;;5033187;28;20501;-81
2023/10/05 09:30:59;;;;;;;13.90;2.88;;;16.80;99.80;;;;;;5031968;28;20030;-81
2023/10/05 09:33:33;;;;;;;8.82;2.47;;;16.80;99.70;;;;;;5033387;28;20398;-80
2023/10/05 09:36:16;;;;;;;10.85;2.70;;;16.80;99.70;;;;;;5033584;28;20037;-82
2023/10/05 09:38:45;;;;;;;15.73;2.83;;;16.80;99.70;;;;;;5033672;28;20025;-83
2023/10/05 09:41:17;;;;;;;10.15;2.70;;;16.80;99.40;;;;;;5032075;28;20049;-80
2023/10/05 09:43:44;;;;;;;10.50;2.43;;;16.70;99.40;;;;;;5031481;28;20026;-80
2023/10/05 09:46:10;;;;;;;8.10;2.13;;;16.70;99.50;;;;;;5032975;28;20021;-81
2023/10/05 09:48:40;;;;;;;11.63;2.90;;;16.70;99.60;;;;;;5033193;28;20048;-83
2023/10/05 09:51:09;;;;;;;9.63;2.60;;;16.70;99.50;;;;;;5032987;28;20108;-80
2023/10/05 09:53:35;;;;;;;11.88;2.70;;;16.60;99.60;;;;;;5033079;28;20036;-79
2023/10/05 09:56:01;;;;;;;10.68;2.47;;;16.70;99.70;;;;;;5031507;28;20034;-81
2023/10/05 09:58:28;;;;;;;9.95;2.58;;;16.70;99.80;;;;;;5031991;28;20120;-79
2023/10/05 10:00:55;;;;;;;8.63;2.25;;;16.70;99.90;;;;;;5032936;28;20033;-80
2023/10/05 10:03:22;;;;;;;12.30;2.90;;;16.70;99.70;;;;;;5032081;28;20026;-79
2023/10/05 10:06:08;;;;;;;8.73;2.30;;;16.80;99.70;;;;;;5031702;28;20458;-78
2023/10/05 10:08:42;;;;;;;8.30;2.38;;;16.80;99.50;;;;;;5032738;28;20367;-77
2023/10/05 10:11:18;;;;;;;10.75;2.63;;;16.90;99.40;;;;;;5033046;28;20037;-78
2023/10/05 10:13:52;;;;;;;9.40;2.33;;;16.90;99.40;;;;;;5033269;28;20390;-80
2023/10/05 10:16:22;;;;;;;8.50;2.13;;;16.90;99.40;;;;;;5032580;28;20042;-79
2023/10/05 10:19:09;;;;;;;9.57;2.30;;;17.00;99.40;;;;;;5032249;28;20049;-79
2023/10/05 10:21:49;;;;;;;8.00;2.35;;;16.90;99.40;;;;;;5033287;28;20421;-78
2023/10/05 10:24:17;;;;;;;9.05;2.30;;;17.00;99.50;;;;;;5032949;28;20113;-79
2023/10/05 10:27:08;;;;;;;10.70;2.65;;;17.00;99.40;;;;;;5032694;28;20033;-79
2023/10/05 10:29:47;;;;;;;10.00;1.92;;;16.90;99.30;;;;;;5036677;28;20026;-79
2023/10/05 10:32:18;;;;;;;10.32;2.00;;;17.00;99.50;;;;;;5036156;28;20050;-77
2023/10/05 10:34:50;;;;;;;8.90;2.22;;;17.10;99.50;;;;;;5036236;28;20025;-78
2023/10/05 10:37:44;;;;;;;8.70;2.10;;;17.10;99.50;;;;;;5036100;28;20041;-78
2023/10/05 10:45:40;;;;;;;10.65;2.17;;;17.20;99.30;;;;;;5035467;28;20033;-80
2023/10/05 10:48:20;;;;;;;10.70;2.00;;;17.20;99.30;;;;;;5036246;28;20034;-79
2023/10/05 10:50:47;;;;;;;8.35;1.77;;;17.20;99.30;;;;;;5036741;28;20052;-80
2023/10/05 10:53:17;;;;;;;9.88;2.38;;;17.30;99.30;;;;;;5036306;28;20108;-80
2023/10/05 10:56:10;;;;;;;8.48;2.20;;;17.30;99.00;;;;;;5036258;28;20084;-79
2023/10/05 10:58:36;;;;;;;11.60;2.20;;;17.30;98.90;;;;;;5035874;28;20048;-79
2023/10/05 11:01:04;;;;;;;11.20;2.22;;;17.30;98.90;;;;;;5035757;28;20042;-81
2023/10/05 11:03:36;;;;;;;12.02;2.65;;;17.30;99.10;;;;;;5035806;28;20060;-77
2023/10/05 11:06:04;;;;;;;12.27;2.58;;;17.40;99.20;;;;;;5035841;28;20064;-81
2023/10/05 11:08:33;;;;;;;15.38;3.33;;;17.50;99.20;;;;;;5035329;28;20120;-82
2023/10/05 11:10:59;;;;;;;11.73;2.28;;;17.50;99.00;;;;;;5035526;28;20029;-79
2023/10/05 11:13:30;;;;;;;6.18;2.50;;;17.60;98.90;;;;;;5035597;28;20053;-83
2023/10/05 11:16:00;;;;;;;8.88;2.55;;;17.70;98.80;;;;;;5036081;28;20059;-80
2023/10/05 11:18:39;;;;;;;10.15;2.13;;;17.70;98.10;;;;;;5035441;28;20047;-79
2023/10/05 11:21:13;;;;;;;10.73;2.60;;;17.70;98.30;;;;;;5035680;28;20026;-83
2023/10/05 11:23:47;;;;;;;10.25;2.35;;;17.80;98.10;;;;;;5035720;28;20060;-81
2023/10/05 11:26:26;;;;;;;6.93;2.00;;;17.70;97.80;;;;;;5035282;28;20025;-81
2023/10/05 11:28:53;;;;;;;13.02;2.45;;;17.60;98.10;;;;;;5035334;28;20033;-79
2023/10/05 11:31:23;;;;;;;10.90;2.35;;;17.70;98.30;;;;;;5033393;28;20049;-83
2023/10/05 11:33:53;;;;;;;12.75;3.47;;;17.70;98.10;;;;;;5035203;28;20068;-82
2023/10/05 11:36:27;;;;;;;11.07;2.25;;;17.70;98.10;;;;;;5035481;28;20017;-83
2023/10/05 11:39:00;;;;;;;7.93;2.13;;;17.60;98.20;;;;;;5035654;28;20030;-86
2023/10/05 11:41:28;;;;;;;9.98;2.05;;;17.60;98.30;;;;;;5036141;28;20033;-81
2023/10/05 11:43:55;;;;;;;9.10;1.95;;;17.70;98.40;;;;;;5035083;28;20485;-78
2023/10/05 11:46:24;;;;;;;12.75;2.65;;;17.70;98.30;;;;;;5035060;28;20029;-77
2023/10/05 11:48:56;;;;;;;7.38;2.47;;;17.70;98.30;;;;;;5033579;28;20446;-79
2023/10/05 11:51:41;;;;;;;11.48;2.22;;;17.90;98.50;;;;;;5035301;28;20116;-79
2023/10/05 11:54:12;;;;;;;8.88;2.05;;;18.10;98.20;;;;;;5035397;28;20037;-79
2023/10/05 11:56:41;;;;;;;11.07;2.33;;;18.20;97.90;;;;;;5034145;28;20022;-82
2023/10/05 11:59:09;;;;;;;6.40;1.88;;;18.20;97.80;;;;;;5034250;28;20466;-83
2023/10/05 12:01:40;;;;;;;11.02;2.35;;;18.30;97.50;;;;;;5034395;28;20029;-80
2023/10/05 12:04:08;;;;;;;8.13;2.20;;;18.30;97.30;;;;;;5034241;28;20034;-81
2023/10/05 12:06:37;;;;;;;11.68;2.80;;;18.20;97.30;;;;;;5033419;28;20090;-82
2023/10/05 12:09:07;;;;;;;8.23;2.55;;;18.20;97.40;;;;;;5034603;28;20462;-86
2023/10/05 12:11:36;;;;;;;10.27;2.00;;;18.20;97.20;;;;;;5035171;28;20128;-85
2023/10/05 12:14:04;;;;;;;10.55;2.30;;;18.10;97.00;;;;;;5034610;28;20025;-84
2023/10/05 12:16:34;;;;;;;7.40;1.50;;;18.20;97.20;;;;;;5034829;28;20030;-83
2023/10/05 12:19:13;;;;;;;12.43;2.20;;;18.20;97.20;;;;;;5035027;28;20033;-83
2023/10/05 12:21:41;;;;;;;11.80;2.08;;;18.10;97.00;;;;;;5034487;28;20038;-80
2023/10/05 12:24:08;;;;;;;12.65;2.13;;;18.10;97.10;;;;;;5034035;28;20496;-84
2023/10/05 12:26:33;;;;;;;10.82;1.98;;;18.10;97.20;;;;;;5033609;28;20030;-81
2023/10/05 12:28:59;;;;;;;10.27;2.20;;;18.10;97.20;;;;;;5035032;28;20057;-84
2023/10/05 12:31:26;;;;;;;10.40;2.47;;;18.10;96.90;;;;;;5034239;28;20466;-83
2023/10/05 12:33:51;;;;;;;12.38;1.98;;;18.10;96.90;;;;;;5034511;28;20045;-82
2023/10/05 12:36:17;;;;;;;10.02;1.90;;;18.20;97.10;;;;;;5033839;28;20034;-83
2023/10/05 12:38:43;;;;;;;6.63;1.83;;;18.20;97.00;;;;;;5033736;28;20048;-81
2023/10/05 12:41:15;;;;;;;10.18;1.80;;;18.10;97.00;;;;;;5016191;28;20075;-81
2023/10/05 12:43:42;;;;;;;9.65;1.70;;;18.20;97.00;;;;;;5033157;28;20048;-80
2023/10/05 12:46:12;;;;;;;15.05;1.95;;;18.20;97.00;;;;;;5034342;28;20026;-81
2023/10/05 12:48:39;;;;;;;7.85;1.85;;;18.20;97.10;;;;;;5033571;28;20045;-80
2023/10/05 12:51:13;;;;;;;7.20;1.63;;;18.20;97.10;;;;;;5033686;28;20029;-78
2023/10/05 12:53:39;;;;;;;14.13;2.85;;;18.20;97.20;;;;;;5034276;28;20037;-80
2023/10/05 12:56:05;;;;;;;7.28;1.52;;;18.20;97.30;;;;;;5033721;28;20041;-79
2023/10/05 12:58:32;;;;;;;11.75;1.83;;;18.10;97.30;;;;;;5033739;28;20068;-80
2023/10/05 13:01:07;;;;;;;8.55;1.80;;;18.20;97.30;;;;;;5034374;28;20037;-79
2023/10/05 13:03:34;;;;;;;12.15;1.98;;;18.20;96.80;;;;;;5033585;28;20022;-79
2023/10/05 13:06:06;;;;;;;8.73;2.05;;;18.20;96.70;;;;;;5034191;28;20037;-79
2023/10/05 13:08:32;;;;;;;8.67;1.70;;;18.20;96.70;;;;;;5032950;28;20038;-83
2023/10/05 13:10:58;;;;;;;5.93;1.00;;;18.20;96.50;;;;;;5032502;28;20268;-78
2023/10/05 13:13:25;;;;;;;8.80;1.80;;;18.20;96.60;;;;;;5032260;28;20111;-80
2023/10/05 13:15:52;;;;;;;6.53;1.40;;;18.30;96.50;;;;;;5032102;28;20398;-78
2023/10/05 13:18:18;;;;;;;9.48;1.70;;;18.30;96.50;;;;;;5033455;28;20029;-79
2023/10/05 13:20:47;;;;;;;8.10;1.65;;;18.30;96.50;;;;;;5034116;28;20148;-79
2023/10/05 13:23:13;;;;;;;8.25;1.92;;;18.40;96.50;;;;;;5032482;28;20041;-77